Portada
METAR-TAF:

METAR-TAF

Aeroports :

Ilam, Iran

latitud: 33-35-09N, longitud: 046-24-20E, altitud: 1334 m

Observació

L'informe es va fer fa 53 minuts, a les 02:00 UTC
Vent 6 kt del Est
Temperatura 23°C
Humitat 29%
Pressió 1017 hPa
Visibilitat 10 km o més
sense núvols per sota de 1500 mi sense presència de cumulonimbus.

METAR: OICI 210200Z 10006KT CAVOK 23/04 Q1017 A3003

Hora: 07:23 (02:53 UTC)

Pronòstic

L'informe es va fer fa 3 hores i 53 minuts, a les 23:00 UTC
Pronòstic vàlid del 21 a les 00 UTC al 22 a les 06 UTC
Vent 8 kt del Est/Sud-Est
Visibilitat: 8000 m
Escasses núvols a una alçada de 4000 ft
Temporalment
l' 21 a les 10 UTC al 21 a les 15 UTC
Vent 14 kt del Oest
Escasses núvols a una alçada de 3000 ft, Cumulonimbus.
Escasses núvols a una alçada de 4000 ft

TAF: OICI 202300Z 2100/2206 12008KT 8000 FEW040 TEMPO 2110/2115 27014KT FEW030CB FEW040

Observacions i pronòstics meteorològics de més de 4000 aeroports (METAR i TAF).

Les estacions disponibles són els punts grocs i vermells al mapa.

Posi el ratolí al punt desitjat per veure el nom de l'estació.

Feu clic per veure les observacions i els pronòstics meteorològics.

Per canviar el mapa: feu clic els botons verds amb una creu de color negre per apropar; al botó verd amb un guió per allunyar la imatge; o en les fletxes verdes per a mapes adjacents.


METAR-TAF: